Time;durP1;ratioP1;P1;durP2;ratioP2;P2;SDS_P1;SDS_P2;PMS_P1;PMS_P2;Temp;Humidity;BMP_temperature;BMP_pressure;BME280_temperature;BME280_humidity;BME280_pressure;Samples;Min_cycle;Max_cycle;Signal;HPM_P1;HPM_P2
2022/08/02 00:00:27;;;;;;;6.40;2.08;;;18.70;99.90;;;;;;5031050;28;20037;-70
2022/08/02 00:02:53;;;;;;;4.78;1.90;;;18.70;99.90;;;;;;5031208;28;20463;-70
2022/08/02 00:05:19;;;;;;;6.38;2.22;;;18.70;99.90;;;;;;5031031;28;20063;-70
2022/08/02 00:07:44;;;;;;;6.40;2.10;;;18.70;99.90;;;;;;5030914;28;20062;-71
2022/08/02 00:10:11;;;;;;;7.63;2.22;;;18.60;99.90;;;;;;5013135;28;20037;-70
2022/08/02 00:12:38;;;;;;;5.68;2.20;;;18.60;99.90;;;;;;5031060;28;20518;-70
2022/08/02 00:15:05;;;;;;;5.00;2.38;;;18.60;99.90;;;;;;5031073;28;20052;-70
2022/08/02 00:17:31;;;;;;;7.32;2.28;;;18.60;99.90;;;;;;5030891;28;20037;-71
2022/08/02 00:19:57;;;;;;;5.65;2.70;;;18.60;99.90;;;;;;5030796;28;20029;-70
2022/08/02 00:22:23;;;;;;;6.80;2.30;;;18.60;99.90;;;;;;5030888;28;20121;-70
2022/08/02 00:24:49;;;;;;;4.78;2.50;;;18.50;99.90;;;;;;5030977;28;20051;-70
2022/08/02 00:27:15;;;;;;;6.78;2.35;;;18.50;99.90;;;;;;5030617;28;20033;-70
2022/08/02 00:29:41;;;;;;;6.30;2.20;;;18.60;99.90;;;;;;5012931;28;20167;-70
2022/08/02 00:32:07;;;;;;;5.85;2.42;;;18.50;99.90;;;;;;5029710;23;20041;-82
2022/08/02 00:34:32;;;;;;;7.05;2.30;;;18.40;99.90;;;;;;4977131;28;20056;-82
2022/08/02 00:36:58;;;;;;;9.25;2.55;;;18.40;99.90;;;;;;4993103;28;20038;-82
2022/08/02 00:39:24;;;;;;;5.85;2.25;;;18.40;99.90;;;;;;5010954;28;20486;-82
2022/08/02 00:41:52;;;;;;;7.40;2.88;;;18.40;99.90;;;;;;5023021;28;20466;-82
2022/08/02 00:44:19;;;;;;;5.57;2.23;;;18.40;99.90;;;;;;5030839;28;20112;-82
2022/08/02 00:46:46;;;;;;;9.32;3.03;;;18.30;99.90;;;;;;5030371;28;20037;-82
2022/08/02 00:49:12;;;;;;;6.95;2.60;;;18.30;99.90;;;;;;5030344;28;20386;-82
2022/08/02 00:51:39;;;;;;;6.20;2.25;;;18.20;99.90;;;;;;5012662;28;20473;-81
2022/08/02 00:54:05;;;;;;;7.22;2.55;;;18.20;99.90;;;;;;5030529;28;20072;-82
2022/08/02 00:56:31;;;;;;;4.38;2.33;;;18.10;99.90;;;;;;5030551;28;20061;-79
2022/08/02 00:58:56;;;;;;;6.40;2.10;;;18.10;99.90;;;;;;5030289;28;20053;-81
2022/08/02 01:01:37;;;;;;;6.40;2.30;;;18.10;99.90;;;;;;5030292;28;20080;-81
2022/08/02 01:04:11;;;;;;;5.45;2.10;;;18.20;99.90;;;;;;5030421;28;20046;-82
2022/08/02 01:06:40;;;;;;;7.60;2.17;;;18.20;99.90;;;;;;5030130;28;20029;-81
2022/08/02 01:09:07;;;;;;;3.92;1.90;;;18.20;99.90;;;;;;5030344;28;20055;-82
2022/08/02 01:11:34;;;;;;;5.15;2.53;;;18.10;99.90;;;;;;5030253;28;20029;-82
2022/08/02 01:14:05;;;;;;;6.85;2.10;;;18.10;99.90;;;;;;5012641;28;20030;-82
2022/08/02 01:16:36;;;;;;;4.85;2.00;;;18.10;99.90;;;;;;5028757;28;20033;-82
2022/08/02 01:19:21;;;;;;;4.70;2.15;;;18.10;99.90;;;;;;5030162;28;20033;-80
2022/08/02 01:22:04;;;;;;;3.92;2.17;;;18.10;99.90;;;;;;5030144;28;20110;-80
2022/08/02 01:24:49;;;;;;;5.30;2.30;;;18.10;99.90;;;;;;5030243;28;20108;-80
2022/08/02 01:27:39;;;;;;;5.85;2.10;;;18.20;99.90;;;;;;5029963;28;20060;-81
2022/08/02 01:30:06;;;;;;;7.10;2.15;;;18.10;99.90;;;;;;5030188;28;20036;-81
2022/08/02 01:32:40;;;;;;;11.88;2.50;;;18.10;99.90;;;;;;4995919;28;20068;-81
2022/08/02 01:35:14;;;;;;;6.63;2.30;;;18.00;99.90;;;;;;5012505;28;20029;-81
2022/08/02 01:37:48;;;;;;;5.05;2.28;;;18.00;99.90;;;;;;5029978;28;20045;-80
2022/08/02 01:40:21;;;;;;;4.30;2.33;;;18.00;99.90;;;;;;5032963;28;20548;-80
2022/08/02 01:42:50;;;;;;;4.95;2.13;;;18.00;99.90;;;;;;5032351;28;20033;-81
2022/08/02 01:45:18;;;;;;;5.35;2.22;;;18.00;99.90;;;;;;5033480;28;20037;-81
2022/08/02 01:47:46;;;;;;;4.57;2.07;;;18.00;99.90;;;;;;5033229;28;20086;-81
2022/08/02 01:50:16;;;;;;;6.47;2.42;;;18.00;99.90;;;;;;5033285;28;20034;-80
2022/08/02 01:52:47;;;;;;;5.97;2.25;;;17.90;99.90;;;;;;5015689;28;20038;-80
2022/08/02 01:55:20;;;;;;;5.30;2.10;;;17.90;99.90;;;;;;5033551;28;20040;-81
2022/08/02 01:57:52;;;;;;;7.63;2.42;;;17.80;99.90;;;;;;5033104;28;20038;-81
2022/08/02 02:00:21;;;;;;;6.32;2.45;;;17.80;99.90;;;;;;5033018;28;20385;-81
2022/08/02 02:02:49;;;;;;;5.63;2.50;;;17.80;99.90;;;;;;5033285;28;20036;-80
2022/08/02 02:05:18;;;;;;;5.20;2.60;;;17.80;99.90;;;;;;5031951;28;20037;-80
2022/08/02 02:07:45;;;;;;;7.35;2.20;;;17.80;99.90;;;;;;5032996;28;20029;-80
2022/08/02 02:10:14;;;;;;;5.20;2.10;;;17.70;99.90;;;;;;5015254;28;20120;-81
2022/08/02 02:12:43;;;;;;;6.30;2.67;;;17.70;99.90;;;;;;5031833;28;20030;-80
2022/08/02 02:15:10;;;;;;;6.57;2.30;;;17.70;99.90;;;;;;5033068;28;20040;-80
2022/08/02 02:17:38;;;;;;;6.82;2.33;;;17.70;99.90;;;;;;5032904;28;20048;-80
2022/08/02 02:20:05;;;;;;;4.90;2.17;;;17.60;99.90;;;;;;5031835;28;20069;-80
2022/08/02 02:22:31;;;;;;;4.78;2.20;;;17.50;99.90;;;;;;5015010;28;20037;-85
2022/08/02 02:24:57;;;;;;;6.32;2.67;;;17.60;99.90;;;;;;5033011;28;20029;-82
2022/08/02 02:27:24;;;;;;;4.63;2.38;;;17.50;99.90;;;;;;5031198;28;20033;-81
2022/08/02 02:29:52;;;;;;;5.40;2.30;;;17.60;99.90;;;;;;5032676;28;20079;-81
2022/08/02 02:32:20;;;;;;;9.23;2.72;;;17.50;99.90;;;;;;5032612;28;20555;-81
2022/08/02 02:34:48;;;;;;;6.00;2.50;;;17.40;99.90;;;;;;5032799;28;20034;-81
2022/08/02 02:37:20;;;;;;;7.22;2.72;;;17.40;99.90;;;;;;5032661;28;20030;-81
2022/08/02 02:39:49;;;;;;;5.80;2.17;;;17.40;99.90;;;;;;5032381;28;20041;-81
2022/08/02 02:42:18;;;;;;;13.63;2.72;;;17.30;99.90;;;;;;5032500;28;20033;-81
2022/08/02 02:44:46;;;;;;;6.57;3.00;;;17.40;99.90;;;;;;5032562;28;20612;-81
2022/08/02 02:47:14;;;;;;;6.20;2.75;;;17.40;99.90;;;;;;5032395;28;20036;-81
2022/08/02 02:49:43;;;;;;;6.93;2.50;;;17.30;99.90;;;;;;5031660;28;20025;-81
2022/08/02 02:52:13;;;;;;;6.68;3.03;;;17.30;99.90;;;;;;5031773;28;20112;-81
2022/08/02 02:54:39;;;;;;;5.30;2.75;;;17.30;99.90;;;;;;5032250;28;20500;-81
2022/08/02 02:57:05;;;;;;;5.60;2.78;;;17.30;99.90;;;;;;5032280;28;20029;-81
2022/08/02 02:59:34;;;;;;;6.15;2.40;;;17.20;99.90;;;;;;5031981;28;20038;-80
2022/08/02 03:02:00;;;;;;;6.20;2.55;;;17.20;99.90;;;;;;5014707;28;20080;-80
2022/08/02 03:04:27;;;;;;;7.40;2.83;;;17.20;99.90;;;;;;5014436;28;20039;-81
2022/08/02 03:06:53;;;;;;;11.82;6.13;;;17.20;99.90;;;;;;5014342;28;20038;-81
2022/08/02 03:09:19;;;;;;;6.93;3.33;;;17.10;99.90;;;;;;5014223;28;20137;-81
2022/08/02 03:11:47;;;;;;;7.68;3.20;;;17.10;99.90;;;;;;5032028;28;20104;-81
2022/08/02 03:14:13;;;;;;;7.30;3.33;;;17.10;99.90;;;;;;5032124;28;20036;-81
2022/08/02 03:16:51;;;;;;;8.20;3.08;;;17.00;99.90;;;;;;5031832;28;20096;-81
2022/08/02 03:19:19;;;;;;;7.85;3.00;;;17.00;99.90;;;;;;5031742;28;20033;-81
2022/08/02 03:21:46;;;;;;;11.63;3.47;;;17.00;99.90;;;;;;5030456;28;20033;-81
2022/08/02 03:24:13;;;;;;;8.00;3.20;;;17.00;99.90;;;;;;5014136;28;20029;-81
2022/08/02 03:26:38;;;;;;;6.72;2.90;;;17.00;99.90;;;;;;5013859;28;20045;-80
2022/08/02 03:29:05;;;;;;;5.97;2.95;;;17.10;99.90;;;;;;5031655;28;20097;-81
2022/08/02 03:31:31;;;;;;;4.97;2.50;;;17.00;99.90;;;;;;5030294;28;20129;-81
2022/08/02 03:33:59;;;;;;;8.98;3.22;;;17.00;99.90;;;;;;5031638;28;20108;-81
2022/08/02 03:36:27;;;;;;;8.32;3.30;;;16.90;99.90;;;;;;5030322;28;20454;-80
2022/08/02 03:38:55;;;;;;;4.57;2.60;;;17.00;99.90;;;;;;5013871;28;20129;-80
2022/08/02 03:41:22;;;;;;;7.32;3.00;;;16.90;99.90;;;;;;5031473;28;20033;-86
2022/08/02 03:43:49;;;;;;;8.73;3.20;;;16.90;99.90;;;;;;5011909;28;20037;-83
2022/08/02 03:46:19;;;;;;;7.10;3.17;;;16.90;99.90;;;;;;5030146;28;20184;-82
2022/08/02 03:48:47;;;;;;;8.15;2.97;;;16.90;99.90;;;;;;5020139;28;20072;-81
2022/08/02 03:51:13;;;;;;;5.80;3.17;;;16.90;99.90;;;;;;5026259;28;20390;-82
2022/08/02 03:53:39;;;;;;;8.27;3.17;;;16.90;99.90;;;;;;5030446;28;20052;-81
2022/08/02 03:56:06;;;;;;;9.45;3.20;;;16.90;99.90;;;;;;5029717;28;20037;-81
2022/08/02 03:58:32;;;;;;;6.85;2.85;;;16.90;99.90;;;;;;5030317;28;20362;-81
2022/08/02 04:00:58;;;;;;;6.32;3.13;;;16.80;99.90;;;;;;5028218;28;20029;-81
2022/08/02 04:03:25;;;;;;;6.32;2.80;;;16.90;99.90;;;;;;5029770;28;20033;-84
2022/08/02 04:05:51;;;;;;;5.57;2.95;;;16.80;99.90;;;;;;5028980;28;20164;-84
2022/08/02 04:08:17;;;;;;;5.90;2.80;;;16.90;99.90;;;;;;5028819;28;20029;-84
2022/08/02 04:13:31;;;;;;;8.02;3.28;;;16.90;99.90;;;;;;5030170;28;20111;-84
2022/08/02 04:16:17;;;;;;;6.75;2.97;;;16.90;99.90;;;;;;5011194;28;20063;-83
2022/08/02 04:18:54;;;;;;;7.15;2.72;;;16.90;99.90;;;;;;5029322;28;20025;-83
2022/08/02 04:21:22;;;;;;;6.25;3.05;;;16.90;99.90;;;;;;5029125;28;20108;-83
2022/08/02 04:23:50;;;;;;;8.73;3.90;;;16.90;99.90;;;;;;5030003;28;20370;-84
2022/08/02 04:26:17;;;;;;;8.95;3.47;;;16.90;99.90;;;;;;5029360;28;20075;-83
2022/08/02 04:28:43;;;;;;;9.68;3.38;;;16.90;99.90;;;;;;5029750;28;20033;-84
2022/08/02 04:31:09;;;;;;;5.68;3.63;;;16.90;99.90;;;;;;5029440;28;20029;-84
2022/08/02 04:33:36;;;;;;;9.68;3.45;;;16.90;99.90;;;;;;5011835;28;20544;-84
2022/08/02 04:36:05;;;;;;;6.78;3.33;;;16.90;99.90;;;;;;5028494;28;20112;-84
2022/08/02 04:38:31;;;;;;;6.55;3.65;;;17.00;99.90;;;;;;5028144;28;20061;-84
2022/08/02 04:40:57;;;;;;;8.95;4.47;;;16.90;99.90;;;;;;5011364;28;20025;-84
2022/08/02 04:43:23;;;;;;;8.10;3.85;;;17.00;99.90;;;;;;5028650;28;20084;-84
2022/08/02 04:45:53;;;;;;;7.47;3.60;;;17.10;99.90;;;;;;5011437;28;20039;-87
2022/08/02 04:48:37;;;;;;;8.48;4.05;;;17.00;99.90;;;;;;5030812;28;20047;-86
2022/08/02 04:51:06;;;;;;;7.75;4.15;;;17.10;99.90;;;;;;5028615;28;20085;-85
2022/08/02 04:53:32;;;;;;;8.60;4.30;;;17.10;99.90;;;;;;5030071;28;20025;-87
2022/08/02 04:56:10;;;;;;;11.10;5.80;;;17.20;99.90;;;;;;5012266;28;20029;-88
2022/08/02 04:58:49;;;;;;;6.93;3.72;;;17.20;99.90;;;;;;5029326;28;20384;-87
2022/08/02 05:01:35;;;;;;;9.05;4.30;;;17.30;99.90;;;;;;5012010;28;20508;-89
2022/08/02 05:04:40;;;;;;;8.38;4.93;;;17.40;99.90;;;;;;5035570;28;20501;-88
2022/08/02 05:07:15;;;;;;;12.82;5.13;;;17.50;99.90;;;;;;5036278;28;20030;-88
2022/08/02 05:09:43;;;;;;;10.02;4.93;;;17.60;99.90;;;;;;5034034;28;20029;-88
2022/08/02 05:12:21;;;;;;;8.18;4.57;;;17.70;99.90;;;;;;5033435;28;20124;-83
2022/08/02 05:14:49;;;;;;;11.27;5.47;;;17.80;99.90;;;;;;5031607;28;20026;-83
2022/08/02 05:17:15;;;;;;;11.45;5.28;;;17.80;99.90;;;;;;5035181;28;20053;-82
2022/08/02 05:19:41;;;;;;;10.82;5.13;;;17.80;99.90;;;;;;5031720;28;20029;-84
2022/08/02 05:22:06;;;;;;;11.73;4.85;;;17.90;99.90;;;;;;5014789;28;20481;-83
2022/08/02 05:24:32;;;;;;;7.20;4.60;;;17.90;99.90;;;;;;5031688;28;20443;-84
2022/08/02 05:26:58;;;;;;;11.68;5.80;;;17.90;99.90;;;;;;5014521;28;20151;-84
2022/08/02 05:29:24;;;;;;;9.93;5.45;;;18.00;99.90;;;;;;5031674;28;20043;-84
2022/08/02 05:31:50;;;;;;;12.00;6.07;;;18.00;99.90;;;;;;5030604;28;20041;-84
2022/08/02 05:34:16;;;;;;;10.98;5.70;;;18.10;99.90;;;;;;5031029;28;20041;-83
2022/08/02 05:36:41;;;;;;;15.65;5.97;;;18.10;99.90;;;;;;5030668;28;20041;-84
2022/08/02 05:39:08;;;;;;;7.80;5.30;;;18.10;99.90;;;;;;5031753;28;20040;-84
2022/08/02 05:41:34;;;;;;;8.90;4.82;;;18.10;99.90;;;;;;5014617;28;20052;-84
2022/08/02 05:44:01;;;;;;;8.40;5.25;;;18.20;99.90;;;;;;5030729;28;20550;-84
2022/08/02 05:46:27;;;;;;;10.25;5.70;;;18.20;99.90;;;;;;5032153;28;20084;-84
2022/08/02 05:48:53;;;;;;;13.93;6.90;;;18.20;99.90;;;;;;5032039;28;20068;-84
2022/08/02 05:51:25;;;;;;;14.70;6.70;;;18.30;99.90;;;;;;5031067;28;20045;-84
2022/08/02 05:54:01;;;;;;;12.07;6.57;;;18.40;99.90;;;;;;5032094;28;20037;-84
2022/08/02 05:56:33;;;;;;;14.50;6.78;;;18.40;99.90;;;;;;5032104;28;20041;-83
2022/08/02 05:59:26;;;;;;;10.88;6.32;;;18.50;99.90;;;;;;5013749;28;20044;-84
2022/08/02 06:01:59;;;;;;;9.80;6.47;;;18.50;99.90;;;;;;5031894;28;20156;-84
2022/08/02 06:04:32;;;;;;;10.13;6.70;;;18.60;99.90;;;;;;5031189;28;20037;-81
2022/08/02 06:07:05;;;;;;;13.48;6.85;;;18.60;99.90;;;;;;5031851;28;20036;-86
2022/08/02 06:09:33;;;;;;;10.90;6.60;;;18.60;99.90;;;;;;5031923;28;20026;-84
2022/08/02 06:12:01;;;;;;;9.80;6.25;;;18.70;99.90;;;;;;5031956;28;20172;-85
2022/08/02 06:14:29;;;;;;;8.82;5.72;;;18.80;99.90;;;;;;5031466;28;20030;-86
2022/08/02 06:16:56;;;;;;;10.03;5.87;;;18.80;99.90;;;;;;5014171;28;20477;-86
2022/08/02 06:19:23;;;;;;;10.60;5.72;;;18.80;99.90;;;;;;5030578;28;20061;-86
2022/08/02 06:21:50;;;;;;;11.13;6.47;;;18.90;99.90;;;;;;5031920;28;20025;-85
2022/08/02 06:24:18;;;;;;;13.98;6.75;;;19.00;99.90;;;;;;5031050;28;20034;-80
2022/08/02 06:26:44;;;;;;;12.38;6.88;;;19.00;99.90;;;;;;5029660;28;20025;-78
2022/08/02 06:29:12;;;;;;;12.23;6.60;;;19.00;99.90;;;;;;5030412;28;20107;-79
2022/08/02 06:31:41;;;;;;;11.27;5.88;;;19.10;99.90;;;;;;5065371;22;20048;-71
2022/08/02 06:34:06;;;;;;;10.05;6.15;;;19.10;99.90;;;;;;5049033;28;20036;-70
2022/08/02 06:37:05;;;;;;;9.07;6.13;;;19.20;99.90;;;;;;5049406;28;20090;-71
2022/08/02 06:39:42;;;;;;;8.15;5.80;;;19.20;99.90;;;;;;5051515;28;20151;-71
2022/08/02 06:42:12;;;;;;;10.85;6.68;;;19.30;99.90;;;;;;5051715;28;20028;-72
2022/08/02 06:44:43;;;;;;;10.38;5.75;;;19.30;99.90;;;;;;5050215;28;20033;-71
2022/08/02 06:47:09;;;;;;;11.00;6.45;;;19.30;99.90;;;;;;5051205;28;20045;-71
2022/08/02 06:49:35;;;;;;;9.40;6.07;;;19.40;99.90;;;;;;5049945;28;20088;-71
2022/08/02 06:52:02;;;;;;;13.60;6.00;;;19.40;99.90;;;;;;5051442;28;20413;-70
2022/08/02 06:54:28;;;;;;;14.95;6.22;;;19.50;99.90;;;;;;5051169;28;20301;-71
2022/08/02 06:56:54;;;;;;;8.30;5.03;;;19.50;99.90;;;;;;5050831;28;20056;-70
2022/08/02 06:59:20;;;;;;;15.82;6.15;;;19.60;99.90;;;;;;5051095;28;20036;-68
2022/08/02 07:01:46;;;;;;;9.40;5.55;;;19.60;99.90;;;;;;5051075;28;20024;-69
2022/08/02 07:04:12;;;;;;;9.98;5.97;;;19.60;99.90;;;;;;5049602;28;20028;-68
2022/08/02 07:06:37;;;;;;;11.68;5.82;;;19.70;99.90;;;;;;5049837;28;20058;-68
2022/08/02 07:09:03;;;;;;;8.30;5.63;;;19.70;99.90;;;;;;5050657;28;20071;-68
2022/08/02 07:11:29;;;;;;;9.38;5.32;;;19.70;99.90;;;;;;5050914;28;20048;-69
2022/08/02 07:13:55;;;;;;;10.82;5.47;;;19.70;99.90;;;;;;5050497;28;20418;-68
2022/08/02 07:16:21;;;;;;;7.93;5.18;;;19.70;99.90;;;;;;5050651;28;20331;-70
2022/08/02 07:18:46;;;;;;;10.43;5.32;;;19.70;99.90;;;;;;5050522;28;20040;-70
2022/08/02 07:21:12;;;;;;;10.07;5.68;;;19.70;99.90;;;;;;5050138;28;20098;-69
2022/08/02 07:23:38;;;;;;;8.13;4.72;;;19.80;99.90;;;;;;5050780;28;20513;-69
2022/08/02 07:26:04;;;;;;;9.40;5.88;;;19.80;99.90;;;;;;5050516;28;20033;-68
2022/08/02 07:28:31;;;;;;;12.85;6.00;;;19.90;99.90;;;;;;5050747;28;20053;-69
2022/08/02 07:30:56;;;;;;;9.13;5.43;;;19.90;99.90;;;;;;5050400;28;20532;-67
2022/08/02 07:33:22;;;;;;;10.23;5.13;;;19.90;99.90;;;;;;5050329;28;20036;-69
2022/08/02 07:35:48;;;;;;;9.85;5.15;;;19.90;99.90;;;;;;5049379;28;20036;-68
2022/08/02 07:38:14;;;;;;;9.98;5.70;;;20.00;99.90;;;;;;5050077;28;20512;-68
2022/08/02 07:40:40;;;;;;;11.25;5.10;;;20.00;99.90;;;;;;5049935;28;20029;-69
2022/08/02 07:43:06;;;;;;;10.40;4.80;;;20.00;99.90;;;;;;5050348;28;20108;-68
2022/08/02 07:45:32;;;;;;;8.45;4.90;;;20.00;99.90;;;;;;5048782;28;20024;-69
2022/08/02 07:47:58;;;;;;;6.63;4.70;;;20.10;99.90;;;;;;5050079;28;20091;-70
2022/08/02 07:50:24;;;;;;;8.00;4.60;;;20.10;99.90;;;;;;5047858;28;20029;-71
2022/08/02 07:52:50;;;;;;;8.98;4.68;;;20.10;99.90;;;;;;5050267;28;20024;-70
2022/08/02 07:55:19;;;;;;;5.70;4.32;;;20.10;99.90;;;;;;5049492;28;20036;-70
2022/08/02 07:57:46;;;;;;;6.68;4.22;;;20.10;99.90;;;;;;5049878;28;20037;-70
2022/08/02 08:00:14;;;;;;;7.03;4.00;;;20.20;99.90;;;;;;5048067;28;20106;-70
2022/08/02 08:02:41;;;;;;;6.90;4.30;;;20.20;99.90;;;;;;5050269;28;20497;-70
2022/08/02 08:05:07;;;;;;;7.57;3.78;;;20.30;99.90;;;;;;5049548;28;20040;-70
2022/08/02 08:07:33;;;;;;;4.20;3.20;;;20.30;99.90;;;;;;5049094;28;20036;-70
2022/08/02 08:10:00;;;;;;;5.88;3.63;;;20.40;99.90;;;;;;5049780;28;20064;-70
2022/08/02 08:12:26;;;;;;;6.90;3.72;;;20.40;99.90;;;;;;5049915;28;20052;-70
2022/08/02 08:14:53;;;;;;;7.72;4.25;;;20.40;99.90;;;;;;5050055;28;20186;-70
2022/08/02 08:17:19;;;;;;;6.03;3.72;;;20.40;99.90;;;;;;5049608;28;20033;-70
2022/08/02 08:19:45;;;;;;;6.28;3.40;;;20.40;99.90;;;;;;5049762;28;20020;-70
2022/08/02 08:22:11;;;;;;;8.13;4.13;;;20.40;99.90;;;;;;5049336;28;20421;-70
2022/08/02 08:24:37;;;;;;;5.50;3.17;;;20.40;99.90;;;;;;5049750;28;20021;-70
2022/08/02 08:27:04;;;;;;;7.50;3.85;;;20.50;99.90;;;;;;5049329;28;20047;-70
2022/08/02 08:29:30;;;;;;;8.48;4.40;;;20.60;99.90;;;;;;5049519;28;20021;-70
2022/08/02 08:31:56;;;;;;;5.90;3.58;;;20.60;99.90;;;;;;5049525;28;20037;-70
2022/08/02 08:34:23;;;;;;;5.78;3.60;;;20.60;99.90;;;;;;5049520;28;20027;-70
2022/08/02 08:36:49;;;;;;;6.47;3.35;;;20.60;99.90;;;;;;5049200;28;20029;-70
2022/08/02 08:39:15;;;;;;;6.20;3.90;;;20.70;99.90;;;;;;5049585;28;20128;-70
2022/08/02 08:41:45;;;;;;;7.15;3.60;;;20.80;99.90;;;;;;5049499;28;20111;-70
2022/08/02 08:44:11;;;;;;;5.50;3.47;;;20.90;99.90;;;;;;5049443;28;20039;-70
2022/08/02 08:46:39;;;;;;;7.35;3.30;;;21.00;99.90;;;;;;5049041;28;20037;-70
2022/08/02 08:49:17;;;;;;;9.10;3.75;;;21.00;99.90;;;;;;5052523;28;20071;-70
2022/08/02 08:51:43;;;;;;;8.52;4.35;;;21.10;99.90;;;;;;5053278;28;20033;-70
2022/08/02 08:54:14;;;;;;;8.55;4.25;;;21.10;99.90;;;;;;5053465;28;20029;-70
2022/08/02 08:56:41;;;;;;;7.45;4.75;;;21.20;99.90;;;;;;5053309;28;20448;-70
2022/08/02 08:59:07;;;;;;;12.43;5.00;;;21.40;99.90;;;;;;5053306;28;20489;-70
2022/08/02 09:01:34;;;;;;;8.90;4.53;;;21.40;99.90;;;;;;5053346;28;20037;-70
2022/08/02 09:04:00;;;;;;;9.13;4.30;;;21.40;99.90;;;;;;5053461;28;20048;-70
2022/08/02 09:06:27;;;;;;;6.55;4.30;;;21.50;99.90;;;;;;5051773;28;20025;-70
2022/08/02 09:08:53;;;;;;;9.25;4.75;;;21.50;99.90;;;;;;5053283;28;20021;-70
2022/08/02 09:11:24;;;;;;;7.43;4.60;;;21.60;99.90;;;;;;5053216;28;20057;-70
2022/08/02 09:13:58;;;;;;;7.85;4.45;;;21.60;99.90;;;;;;5053058;28;20112;-70
2022/08/02 09:16:34;;;;;;;13.50;6.43;;;21.70;99.90;;;;;;5052953;28;20044;-70
2022/08/02 09:19:20;;;;;;;6.45;4.63;;;21.80;99.90;;;;;;5053367;28;20033;-70
2022/08/02 09:21:51;;;;;;;8.63;3.90;;;21.90;99.90;;;;;;5052766;28;20028;-70
2022/08/02 09:24:19;;;;;;;7.90;3.72;;;22.00;99.90;;;;;;5051520;28;20033;-70
2022/08/02 09:26:46;;;;;;;17.75;5.38;;;22.00;99.90;;;;;;5052829;28;20107;-70
2022/08/02 09:29:13;;;;;;;7.47;3.83;;;22.00;99.90;;;;;;5052822;28;20481;-69
2022/08/02 09:31:40;;;;;;;8.23;3.50;;;22.20;99.90;;;;;;5052571;28;20031;-70
2022/08/02 09:34:06;;;;;;;6.32;4.20;;;22.20;99.90;;;;;;5051429;28;20469;-70
2022/08/02 09:36:40;;;;;;;7.32;3.95;;;22.30;99.90;;;;;;5052470;28;20031;-70
2022/08/02 09:39:10;;;;;;;9.80;4.45;;;22.30;99.90;;;;;;5052514;28;20075;-70
2022/08/02 09:41:42;;;;;;;7.35;3.85;;;22.30;99.90;;;;;;5051298;28;20120;-70
2022/08/02 09:44:11;;;;;;;8.73;4.05;;;22.40;99.90;;;;;;5053040;28;20048;-70
2022/08/02 09:46:39;;;;;;;7.50;4.28;;;22.40;99.90;;;;;;5052180;28;20029;-70
2022/08/02 09:49:23;;;;;;;10.50;4.10;;;22.40;99.90;;;;;;5052074;28;20025;-70
2022/08/02 09:51:51;;;;;;;7.40;4.07;;;22.50;99.90;;;;;;5051826;28;20029;-70
2022/08/02 09:54:21;;;;;;;6.75;4.05;;;22.50;99.90;;;;;;5052073;28;20033;-70
2022/08/02 09:56:50;;;;;;;10.00;3.97;;;22.60;99.90;;;;;;5052016;28;20064;-70
2022/08/02 09:59:17;;;;;;;;;;;22.70;99.80;;;;;;5050474;28;20032;-70
2022/08/02 10:01:45;;;;;;;14.77;4.63;;;22.70;99.90;;;;;;5052249;28;19916;-70
2022/08/02 10:04:13;;;;;;;6.45;4.00;;;22.80;99.90;;;;;;5052348;28;20028;-70
2022/08/02 10:06:41;;;;;;;7.38;3.83;;;22.90;99.60;;;;;;5051650;28;20116;-70
2022/08/02 10:09:08;;;;;;;13.77;3.87;;;22.90;99.40;;;;;;5052245;28;20036;-70
2022/08/02 10:11:35;;;;;;;7.10;3.38;;;23.00;99.20;;;;;;5050623;28;20274;-71
2022/08/02 10:14:06;;;;;;;7.35;4.57;;;23.00;99.00;;;;;;5051916;28;20203;-69
2022/08/02 10:16:42;;;;;;;9.30;3.78;;;23.00;98.70;;;;;;5051579;28;20037;-69
2022/08/02 10:19:09;;;;;;;11.68;4.55;;;23.00;98.30;;;;;;5051810;28;20107;-68
2022/08/02 10:21:54;;;;;;;15.18;5.25;;;23.10;98.10;;;;;;5051608;28;20087;-69
2022/08/02 10:24:25;;;;;;;7.88;3.40;;;23.10;98.40;;;;;;5051903;28;20053;-69
2022/08/02 10:26:52;;;;;;;7.90;3.10;;;23.20;98.30;;;;;;5051345;28;20033;-69
2022/08/02 10:29:22;;;;;;;6.60;3.40;;;23.30;98.20;;;;;;5051391;28;20048;-69
2022/08/02 10:31:56;;;;;;;6.60;3.53;;;23.30;97.60;;;;;;5051616;28;20025;-68
2022/08/02 10:34:47;;;;;;;3.90;2.35;;;23.30;97.30;;;;;;5051877;28;20036;-70
2022/08/02 10:37:14;;;;;;;6.03;3.25;;;23.40;96.40;;;;;;5050960;28;20181;-69
2022/08/02 10:39:42;;;;;;;6.95;2.75;;;23.50;96.00;;;;;;5051432;28;20036;-70
2022/08/02 10:42:09;;;;;;;16.30;3.78;;;23.60;96.10;;;;;;5051577;28;20029;-70
2022/08/02 10:44:36;;;;;;;10.45;3.28;;;23.70;96.00;;;;;;5051469;28;20540;-70
2022/08/02 10:47:14;;;;;;;6.75;3.10;;;23.70;96.10;;;;;;5050981;28;20075;-69
2022/08/02 10:49:53;;;;;;;6.78;2.88;;;23.80;96.30;;;;;;5051017;28;20508;-69
2022/08/02 10:52:21;;;;;;;7.60;2.83;;;23.90;95.80;;;;;;5051108;28;20427;-69
2022/08/02 10:55:00;;;;;;;5.78;3.00;;;24.00;96.00;;;;;;5051359;28;20021;-69
2022/08/02 10:57:29;;;;;;;4.43;2.80;;;24.00;95.40;;;;;;5050953;28;20389;-71
2022/08/02 11:00:08;;;;;;;10.65;3.00;;;24.00;95.10;;;;;;5051080;28;20067;-69
2022/08/02 11:02:42;;;;;;;6.13;2.50;;;24.00;94.20;;;;;;5051132;28;20029;-70
2022/08/02 11:05:12;;;;;;;4.75;2.80;;;24.10;94.00;;;;;;5051386;28;20123;-69
2022/08/02 11:07:49;;;;;;;6.10;2.92;;;24.00;94.10;;;;;;5050813;28;20040;-69
2022/08/02 11:10:33;;;;;;;6.28;2.70;;;24.10;94.20;;;;;;5051128;28;20021;-69
2022/08/02 11:13:04;;;;;;;5.22;2.67;;;24.10;93.90;;;;;;5048526;28;20040;-69
2022/08/02 11:15:45;;;;;;;3.53;2.05;;;24.10;93.90;;;;;;5049880;28;20107;-70
2022/08/02 11:18:11;;;;;;;4.55;2.78;;;24.30;93.90;;;;;;5049264;28;20102;-69
2022/08/02 11:20:37;;;;;;;5.85;3.10;;;24.30;93.60;;;;;;5049042;28;20082;-69
2022/08/02 11:23:38;;;;;;;4.15;2.38;;;24.40;93.60;;;;;;5048493;28;20056;-69
2022/08/02 11:26:29;;;;;;;4.78;2.20;;;24.50;93.10;;;;;;5032517;28;20473;-69
2022/08/02 11:29:02;;;;;;;3.80;2.45;;;24.60;92.40;;;;;;5051340;28;20068;-70
2022/08/02 11:31:36;;;;;;;4.32;2.17;;;24.60;92.70;;;;;;5051329;28;20032;-69
2022/08/02 11:34:10;;;;;;;6.07;4.40;;;24.60;92.60;;;;;;5067961;28;20379;-69
2022/08/02 11:37:02;;;;;;;3.80;2.53;;;24.60;92.80;;;;;;5050065;28;20041;-70
2022/08/02 11:39:28;;;;;;;5.25;2.60;;;24.60;93.00;;;;;;5066026;28;20049;-70
2022/08/02 11:41:57;;;;;;;5.78;3.45;;;24.70;92.90;;;;;;5066731;28;20086;-70
2022/08/02 11:44:23;;;;;;;;;;;24.70;92.50;;;;;;5068512;28;20032;-70
2022/08/02 11:46:57;;;;;;;3.95;2.25;;;24.80;92.40;;;;;;5068015;28;20357;-70
2022/08/02 11:49:23;;;;;;;4.28;2.30;;;24.80;91.50;;;;;;5067742;28;20036;-70
2022/08/02 11:51:57;;;;;;;4.32;2.40;;;24.90;91.00;;;;;;5067638;28;20037;-70
2022/08/02 11:54:25;;;;;;;3.28;1.90;;;25.10;90.20;;;;;;5068316;28;20099;-70
2022/08/02 11:56:52;;;;;;;4.20;2.10;;;25.10;90.10;;;;;;5067858;28;20044;-70
2022/08/02 11:59:17;;;;;;;3.90;1.98;;;25.10;89.50;;;;;;5067520;28;20024;-70
2022/08/02 12:01:43;;;;;;;6.45;2.38;;;25.20;89.20;;;;;;5067636;28;20040;-70
2022/08/02 12:04:09;;;;;;;6.63;2.35;;;25.20;89.90;;;;;;5067778;28;20425;-70
2022/08/02 12:06:35;;;;;;;4.75;2.28;;;25.20;89.10;;;;;;5067573;28;20040;-70
2022/08/02 12:09:10;;;;;;;15.57;3.63;;;25.20;89.40;;;;;;5067345;28;20111;-70
2022/08/02 12:11:36;;;;;;;4.75;2.03;;;25.20;90.00;;;;;;5067455;28;20025;-70
2022/08/02 12:14:03;;;;;;;4.25;2.00;;;25.20;88.60;;;;;;5067449;28;20107;-72
2022/08/02 12:19:28;;;;;;;4.00;2.20;;;25.10;89.20;;;;;;5067254;28;20492;-70
2022/08/02 12:22:26;;;;;;;3.70;2.30;;;25.10;90.30;;;;;;5067213;28;20025;-70
2022/08/02 12:24:54;;;;;;;5.80;2.15;;;25.00;90.10;;;;;;5067148;28;20071;-70
2022/08/02 12:27:39;;;;;;;3.67;2.40;;;25.00;89.80;;;;;;5067157;28;20020;-70
2022/08/02 12:30:11;;;;;;;5.40;3.75;;;25.10;89.50;;;;;;5066974;28;20113;-70
2022/08/02 12:32:38;;;;;;;6.75;3.05;;;25.20;88.80;;;;;;5073840;22;20055;-79
2022/08/02 12:35:21;;;;;;;5.97;2.97;;;25.20;89.00;;;;;;5045752;28;20505;-80
2022/08/02 12:37:49;;;;;;;3.88;2.30;;;25.30;88.90;;;;;;5046749;28;20026;-78
2022/08/02 12:40:19;;;;;;;7.55;2.85;;;25.30;88.70;;;;;;5046899;28;20445;-79
2022/08/02 12:42:50;;;;;;;4.40;2.10;;;25.30;89.00;;;;;;5046676;28;20117;-79
2022/08/02 12:45:15;;;;;;;3.75;2.10;;;25.30;89.10;;;;;;5035230;28;20037;-79
2022/08/02 12:47:47;;;;;;;3.28;1.92;;;25.40;89.00;;;;;;5033317;28;20039;-79
2022/08/02 12:50:21;;;;;;;5.40;2.10;;;25.50;88.70;;;;;;5033123;28;20524;-79
2022/08/02 12:52:48;;;;;;;3.80;2.20;;;25.50;88.80;;;;;;5033422;28;20770;-79
2022/08/02 12:55:20;;;;;;;14.80;3.88;;;25.50;88.80;;;;;;5033522;28;20039;-79
2022/08/02 12:57:59;;;;;;;6.15;2.60;;;25.50;88.80;;;;;;5033034;28;20508;-79
2022/08/02 13:00:36;;;;;;;4.28;2.33;;;25.50;89.50;;;;;;5015466;28;20436;-80
2022/08/02 13:03:04;;;;;;;4.03;2.13;;;25.50;89.20;;;;;;5033652;28;20030;-80